Andover, Maine
Current Conditions -  °F | °C
As of 9:52 PM on Friday 28 Nov 2014 (Local Time) from KBML Reporting Station
Scattered Clouds Scattered Clouds  
Wind Chill:   Ceiling: Unl
Heat Index:   Visibility: 10mi
Dew Point:   Wind: 0mph
Humidity: 80%   Direction: NA
Pressure: 30.09"   Gusts: NA
Location:  44.64°N, 70.75°W
Report Text: KBML 290252Z AUTO 00000KT 10SM SCT033 M14/M17 A3009 RMK AO2 SLP215 I1000 I3000 T11391167 51007
Loading
Personal Weather Stations






























Interactive Weather Map New forecast layout! Learn more

10-Day Weather Forecast

Advertisements
Track Severe Weather on mobile